XNO16K EGNT-EGGW
Flight info
| Callsign | XNO16K |
|---|---|
| Flight time | 0h 43m |
| Altitude | 23000 |
| Route | GIRLI P18 GASKO P16 RIBEL/N0439F250 UP16 CROFT/N0427F230 L612 LISTO |
| Aircraft | A320/M-SDE3FGHIRWY/LB1 |
Departure
| Time | 2026-04-30 13:23 |
|---|---|
| Airport | Newcastle International Airport (EGNT) |
Arrival
| Time | 2026-04-30 14:07 |
|---|---|
| Airport | London Luton Airport (EGGW) |
| Time | Latitude | Longitude | Altitude | Speed | Heading |
|---|---|---|---|---|---|
| 2026-04-30 12:47 | 55.03614 | -1.70936 | 264 ft | 0 kts | 274° |
| 2026-04-30 13:16 | 55.03613 | -1.70909 | 263 ft | 4 kts | 274° |
| 2026-04-30 13:16 | 55.03611 | -1.70872 | 263 ft | 4 kts | 289° |
| 2026-04-30 13:17 | 55.03579 | -1.70846 | 263 ft | 0 kts | 4° |
| 2026-04-30 13:19 | 55.03580 | -1.70846 | 263 ft | 2 kts | 4° |
| 2026-04-30 13:19 | 55.03611 | -1.70829 | 262 ft | 5 kts | 40° |
| 2026-04-30 13:20 | 55.03617 | -1.70772 | 262 ft | 6 kts | 101° |
| 2026-04-30 13:20 | 55.03606 | -1.70690 | 261 ft | 8 kts | 110° |
| 2026-04-30 13:20 | 55.03557 | -1.70624 | 261 ft | 9 kts | 163° |
| 2026-04-30 13:20 | 55.03504 | -1.70646 | 262 ft | 7 kts | 183° |
| 2026-04-30 13:21 | 55.03461 | -1.70648 | 262 ft | 6 kts | 182° |
| 2026-04-30 13:21 | 55.03412 | -1.70651 | 262 ft | 11 kts | 180° |
| 2026-04-30 13:21 | 55.03375 | -1.70565 | 263 ft | 9 kts | 75° |
| 2026-04-30 13:22 | 55.03410 | -1.70424 | 259 ft | 0 kts | 66° |
| 2026-04-30 13:22 | 55.03444 | -1.70296 | 258 ft | 27 kts | 65° |
| 2026-04-30 13:22 | 55.04007 | -1.68179 | 244 ft | 152 kts | 64° |
| 2026-04-30 13:23 | 55.04402 | -1.66343 | 570 ft | 169 kts | 79° |
| 2026-04-30 13:23 | 55.05336 | -1.62590 | 2125 ft | 171 kts | 72° |
| 2026-04-30 13:24 | 55.06493 | -1.58400 | 2849 ft | 213 kts | 73° |
| 2026-04-30 13:24 | 55.05999 | -1.53867 | 4130 ft | 205 kts | 146° |
| 2026-04-30 13:25 | 55.02976 | -1.53079 | 5218 ft | 240 kts | 178° |
| 2026-04-30 13:25 | 54.99605 | -1.53161 | 7042 ft | 245 kts | 178° |
| 2026-04-30 13:26 | 54.94636 | -1.56206 | 9560 ft | 267 kts | 206° |
| 2026-04-30 13:26 | 54.91355 | -1.59595 | 10788 ft | 291 kts | 205° |
| 2026-04-30 13:27 | 54.87605 | -1.63418 | 11489 ft | 327 kts | 206° |
| 2026-04-30 13:28 | 54.81599 | -1.69588 | 13593 ft | 340 kts | 206° |
| 2026-04-30 13:28 | 54.77493 | -1.73800 | 14959 ft | 345 kts | 207° |
| 2026-04-30 13:28 | 54.75420 | -1.75925 | 15641 ft | 347 kts | 207° |
| 2026-04-30 13:29 | 54.71161 | -1.79882 | 17045 ft | 346 kts | 198° |
| 2026-04-30 13:29 | 54.66502 | -1.81783 | 18514 ft | 344 kts | 188° |
| 2026-04-30 13:30 | 54.59470 | -1.83995 | 20529 ft | 341 kts | 188° |
| 2026-04-30 13:31 | 54.54866 | -1.85448 | 21932 ft | 336 kts | 188° |
| 2026-04-30 13:31 | 54.48044 | -1.87613 | 24133 ft | 325 kts | 187° |
| 2026-04-30 13:32 | 54.43695 | -1.88975 | 25449 ft | 314 kts | 187° |
| 2026-04-30 13:32 | 54.39384 | -1.90319 | 26233 ft | 324 kts | 187° |
| 2026-04-30 13:33 | 54.34752 | -1.91760 | 26272 ft | 353 kts | 188° |
| 2026-04-30 13:33 | 54.29718 | -1.93328 | 26270 ft | 381 kts | 188° |
| 2026-04-30 13:34 | 54.27065 | -1.94168 | 26267 ft | 395 kts | 190° |
| 2026-04-30 13:34 | 54.19342 | -2.00673 | 26264 ft | 439 kts | 217° |
| 2026-04-30 13:35 | 54.17081 | -2.04259 | 26264 ft | 446 kts | 219° |
| 2026-04-30 13:35 | 54.12549 | -2.11546 | 26277 ft | 448 kts | 219° |
| 2026-04-30 13:36 | 54.08009 | -2.18789 | 26248 ft | 446 kts | 219° |
| 2026-04-30 13:36 | 54.05742 | -2.22397 | 26247 ft | 446 kts | 218° |
| 2026-04-30 13:36 | 54.00934 | -2.28921 | 26242 ft | 439 kts | 206° |
| 2026-04-30 13:37 | 53.98210 | -2.31184 | 26243 ft | 434 kts | 198° |
| 2026-04-30 13:37 | 53.92559 | -2.34791 | 26222 ft | 434 kts | 197° |
| 2026-04-30 13:38 | 53.86915 | -2.38423 | 26217 ft | 434 kts | 198° |
| 2026-04-30 13:38 | 53.84092 | -2.40247 | 26216 ft | 434 kts | 197° |
| 2026-04-30 13:38 | 53.78444 | -2.43877 | 26210 ft | 434 kts | 197° |
| 2026-04-30 13:39 | 53.72828 | -2.47446 | 26211 ft | 434 kts | 197° |
| 2026-04-30 13:39 | 53.67140 | -2.50845 | 26204 ft | 432 kts | 191° |
| 2026-04-30 13:40 | 53.64190 | -2.51620 | 26197 ft | 428 kts | 181° |
| 2026-04-30 13:40 | 53.61226 | -2.51526 | 26197 ft | 426 kts | 172° |
| 2026-04-30 13:40 | 53.58325 | -2.50587 | 26197 ft | 424 kts | 163° |
| 2026-04-30 13:40 | 53.55568 | -2.48845 | 26197 ft | 423 kts | 156° |
| 2026-04-30 13:41 | 53.52863 | -2.46893 | 26209 ft | 424 kts | 156° |
| 2026-04-30 13:41 | 53.50149 | -2.44957 | 26211 ft | 424 kts | 157° |
| 2026-04-30 13:41 | 53.47430 | -2.43040 | 26211 ft | 424 kts | 157° |
| 2026-04-30 13:41 | 53.44708 | -2.41134 | 26211 ft | 424 kts | 157° |
| 2026-04-30 13:42 | 53.41988 | -2.39229 | 26201 ft | 424 kts | 157° |
| 2026-04-30 13:42 | 53.39267 | -2.37319 | 26201 ft | 424 kts | 157° |
| 2026-04-30 13:42 | 53.33822 | -2.33505 | 26202 ft | 424 kts | 157° |
| 2026-04-30 13:43 | 53.31102 | -2.31596 | 26204 ft | 424 kts | 157° |
| 2026-04-30 13:43 | 53.28381 | -2.29687 | 26204 ft | 424 kts | 157° |
| 2026-04-30 13:43 | 53.25659 | -2.27783 | 26205 ft | 424 kts | 157° |
| 2026-04-30 13:43 | 53.22935 | -2.25881 | 26211 ft | 424 kts | 157° |
| 2026-04-30 13:44 | 53.20214 | -2.23987 | 26215 ft | 424 kts | 157° |
| 2026-04-30 13:44 | 53.17526 | -2.22122 | 26217 ft | 424 kts | 157° |
| 2026-04-30 13:44 | 53.14835 | -2.20120 | 26217 ft | 423 kts | 152° |
| 2026-04-30 13:44 | 53.12347 | -2.17505 | 26215 ft | 424 kts | 144° |
| 2026-04-30 13:45 | 53.07596 | -2.11695 | 26213 ft | 424 kts | 144° |
| 2026-04-30 13:45 | 53.05218 | -2.08798 | 26213 ft | 424 kts | 144° |
| 2026-04-30 13:45 | 53.02839 | -2.05905 | 26211 ft | 424 kts | 144° |
| 2026-04-30 13:46 | 53.00460 | -2.03019 | 26210 ft | 424 kts | 144° |
| 2026-04-30 13:46 | 52.98079 | -2.00129 | 26203 ft | 424 kts | 144° |
| 2026-04-30 13:46 | 52.95695 | -1.97238 | 26203 ft | 425 kts | 144° |
| 2026-04-30 13:46 | 52.93308 | -1.94350 | 26202 ft | 425 kts | 144° |
| 2026-04-30 13:47 | 52.90916 | -1.91462 | 26200 ft | 426 kts | 144° |
| 2026-04-30 13:47 | 52.88521 | -1.88579 | 26201 ft | 426 kts | 144° |
| 2026-04-30 13:47 | 52.86125 | -1.85695 | 26205 ft | 426 kts | 144° |
| 2026-04-30 13:47 | 52.83729 | -1.82811 | 26204 ft | 426 kts | 144° |
| 2026-04-30 13:48 | 52.81330 | -1.79932 | 26212 ft | 426 kts | 144° |
| 2026-04-30 13:48 | 52.78926 | -1.77060 | 26214 ft | 426 kts | 144° |
| 2026-04-30 13:48 | 52.76524 | -1.74193 | 26215 ft | 426 kts | 144° |
| 2026-04-30 13:48 | 52.74064 | -1.71468 | 26222 ft | 426 kts | 150° |
| 2026-04-30 13:49 | 52.71450 | -1.69183 | 26128 ft | 425 kts | 152° |
| 2026-04-30 13:49 | 52.68828 | -1.66925 | 26118 ft | 425 kts | 152° |
| 2026-04-30 13:49 | 52.66207 | -1.64671 | 26108 ft | 425 kts | 152° |
| 2026-04-30 13:49 | 52.63586 | -1.62421 | 26099 ft | 425 kts | 152° |
| 2026-04-30 13:50 | 52.60966 | -1.60176 | 26095 ft | 425 kts | 152° |
| 2026-04-30 13:50 | 52.55729 | -1.55687 | 26091 ft | 424 kts | 152° |
| 2026-04-30 13:50 | 52.53117 | -1.53445 | 25797 ft | 421 kts | 152° |
| 2026-04-30 13:51 | 52.50521 | -1.51225 | 24821 ft | 423 kts | 152° |
| 2026-04-30 13:51 | 52.47905 | -1.49000 | 24553 ft | 421 kts | 152° |
| 2026-04-30 13:51 | 52.45349 | -1.46833 | 24313 ft | 406 kts | 152° |
| 2026-04-30 13:51 | 52.42887 | -1.44744 | 24082 ft | 392 kts | 152° |
| 2026-04-30 13:52 | 52.40460 | -1.42680 | 23604 ft | 406 kts | 152° |
| 2026-04-30 13:52 | 52.37941 | -1.40539 | 22713 ft | 408 kts | 152° |
| 2026-04-30 13:52 | 52.35421 | -1.38405 | 21980 ft | 407 kts | 152° |
| 2026-04-30 13:52 | 52.32914 | -1.36287 | 21238 ft | 404 kts | 152° |
| 2026-04-30 13:53 | 52.30423 | -1.34181 | 20502 ft | 403 kts | 153° |
| 2026-04-30 13:53 | 52.27940 | -1.32032 | 19925 ft | 410 kts | 151° |
| 2026-04-30 13:53 | 52.25420 | -1.29715 | 19569 ft | 418 kts | 150° |
| 2026-04-30 13:53 | 52.22911 | -1.27322 | 19142 ft | 418 kts | 150° |
| 2026-04-30 13:54 | 52.20409 | -1.24904 | 18716 ft | 417 kts | 150° |
| 2026-04-30 13:54 | 52.17917 | -1.22505 | 18255 ft | 415 kts | 150° |
| 2026-04-30 13:54 | 52.15455 | -1.20158 | 17946 ft | 402 kts | 150° |
| 2026-04-30 13:54 | 52.13088 | -1.17921 | 17804 ft | 384 kts | 150° |
| 2026-04-30 13:55 | 52.10820 | -1.15794 | 17658 ft | 369 kts | 150° |
| 2026-04-30 13:55 | 52.08642 | -1.13757 | 17530 ft | 354 kts | 150° |
| 2026-04-30 13:55 | 52.06580 | -1.11834 | 17387 ft | 335 kts | 150° |
| 2026-04-30 13:55 | 52.04631 | -1.10013 | 17205 ft | 312 kts | 149° |
| 2026-04-30 13:56 | 52.02942 | -1.07912 | 16702 ft | 303 kts | 136° |
| 2026-04-30 13:56 | 52.01619 | -1.05237 | 16082 ft | 299 kts | 124° |
| 2026-04-30 13:56 | 52.00385 | -1.02472 | 14963 ft | 308 kts | 137° |
| 2026-04-30 13:56 | 51.98586 | -1.00613 | 13833 ft | 318 kts | 159° |
| 2026-04-30 13:57 | 51.96381 | -0.99931 | 12506 ft | 330 kts | 173° |
| 2026-04-30 13:57 | 51.94055 | -0.99649 | 11044 ft | 340 kts | 174° |
| 2026-04-30 13:57 | 51.91672 | -0.99384 | 9988 ft | 339 kts | 174° |
| 2026-04-30 13:57 | 51.89418 | -0.99143 | 9794 ft | 310 kts | 174° |
| 2026-04-30 13:58 | 51.87354 | -0.98935 | 9580 ft | 286 kts | 174° |
| 2026-04-30 13:58 | 51.83688 | -0.98583 | 9316 ft | 243 kts | 174° |
| 2026-04-30 13:58 | 51.82049 | -0.98388 | 9002 ft | 230 kts | 167° |
| 2026-04-30 13:59 | 51.80597 | -0.97419 | 8450 ft | 229 kts | 143° |
| 2026-04-30 13:59 | 51.79546 | -0.95437 | 7903 ft | 241 kts | 117° |
| 2026-04-30 13:59 | 51.79193 | -0.92820 | 7737 ft | 240 kts | 92° |
| 2026-04-30 13:59 | 51.79484 | -0.90182 | 7613 ft | 236 kts | 82° |
| 2026-04-30 14:00 | 51.79846 | -0.87641 | 7490 ft | 229 kts | 82° |
| 2026-04-30 14:00 | 51.80537 | -0.82760 | 7231 ft | 217 kts | 83° |
| 2026-04-30 14:00 | 51.80869 | -0.80399 | 7012 ft | 213 kts | 83° |
| 2026-04-30 14:01 | 51.81193 | -0.78098 | 6737 ft | 206 kts | 83° |
| 2026-04-30 14:01 | 51.81503 | -0.75920 | 6605 ft | 194 kts | 84° |
| 2026-04-30 14:01 | 51.81797 | -0.73823 | 6352 ft | 190 kts | 84° |
| 2026-04-30 14:01 | 51.82084 | -0.71743 | 5976 ft | 192 kts | 84° |
| 2026-04-30 14:02 | 51.82375 | -0.69595 | 5455 ft | 199 kts | 84° |
| 2026-04-30 14:02 | 51.82679 | -0.67382 | 4925 ft | 204 kts | 84° |
| 2026-04-30 14:02 | 51.82989 | -0.65151 | 4492 ft | 202 kts | 84° |
| 2026-04-30 14:02 | 51.83295 | -0.62960 | 4099 ft | 198 kts | 84° |
| 2026-04-30 14:03 | 51.83596 | -0.60801 | 3745 ft | 194 kts | 83° |
| 2026-04-30 14:03 | 51.83891 | -0.58674 | 3374 ft | 194 kts | 84° |
| 2026-04-30 14:03 | 51.84156 | -0.56548 | 2964 ft | 193 kts | 84° |
| 2026-04-30 14:03 | 51.84433 | -0.54486 | 2630 ft | 180 kts | 79° |
| 2026-04-30 14:04 | 51.84737 | -0.52607 | 2388 ft | 167 kts | 80° |
| 2026-04-30 14:04 | 51.85033 | -0.50872 | 2169 ft | 154 kts | 79° |
| 2026-04-30 14:04 | 51.85310 | -0.49272 | 1971 ft | 142 kts | 80° |
| 2026-04-30 14:04 | 51.85568 | -0.47782 | 1776 ft | 133 kts | 80° |
| 2026-04-30 14:05 | 51.85817 | -0.46342 | 1605 ft | 132 kts | 80° |
| 2026-04-30 14:05 | 51.86065 | -0.44913 | 1432 ft | 131 kts | 80° |
| 2026-04-30 14:05 | 51.86311 | -0.43493 | 1237 ft | 131 kts | 79° |
| 2026-04-30 14:05 | 51.86558 | -0.42073 | 1055 ft | 131 kts | 79° |
| 2026-04-30 14:06 | 51.86804 | -0.40656 | 862 ft | 132 kts | 77° |
| 2026-04-30 14:06 | 51.87303 | -0.37794 | 531 ft | 127 kts | 78° |
| 2026-04-30 14:07 | 51.87562 | -0.36315 | 521 ft | 30 kts | 76° |
| 2026-04-30 14:07 | 51.87609 | -0.36019 | 515 ft | 18 kts | 75° |
| 2026-04-30 14:07 | 51.87678 | -0.35927 | 516 ft | 15 kts | 351° |
| 2026-04-30 14:08 | 51.87777 | -0.36103 | 518 ft | 9 kts | 259° |
| 2026-04-30 14:08 | 51.87762 | -0.36197 | 518 ft | 8 kts | 252° |
| 2026-04-30 14:08 | 51.87731 | -0.36375 | 518 ft | 13 kts | 253° |
| 2026-04-30 14:09 | 51.87699 | -0.36558 | 520 ft | 21 kts | 256° |
| 2026-04-30 14:09 | 51.87672 | -0.36715 | 522 ft | 11 kts | 253° |
| 2026-04-30 14:09 | 51.87646 | -0.36892 | 526 ft | 8 kts | 279° |
| 2026-04-30 14:10 | 51.87669 | -0.36947 | 524 ft | 2 kts | 315° |
| 2026-04-30 14:10 | 51.87698 | -0.36970 | 522 ft | 7 kts | 343° |
| 2026-04-30 14:10 | 51.87756 | -0.36996 | 518 ft | 11 kts | 343° |
| 2026-04-30 14:10 | 51.87841 | -0.37045 | 512 ft | 15 kts | 341° |
| 2026-04-30 14:11 | 51.87909 | -0.37080 | 509 ft | 16 kts | 345° |
| 2026-04-30 14:11 | 51.88014 | -0.37131 | 508 ft | 15 kts | 340° |
| 2026-04-30 14:11 | 51.88040 | -0.37171 | 508 ft | 1 kts | 297° |
| 2026-04-30 14:11 | 51.88042 | -0.37176 | 508 ft | 0 kts | 297° |
| 2026-04-30 14:12 | 51.88042 | -0.37180 | 508 ft | 1 kts | 295° |
| 2026-04-30 14:12 | 51.88042 | -0.37200 | 508 ft | 2 kts | 265° |
| 2026-04-30 14:12 | 51.88036 | -0.37234 | 508 ft | 4 kts | 254° |
| 2026-04-30 14:12 | 51.88031 | -0.37262 | 508 ft | 4 kts | 253° |
| 2026-04-30 14:13 | 51.88022 | -0.37306 | 508 ft | 4 kts | 250° |
| 2026-04-30 14:13 | 51.88015 | -0.37342 | 508 ft | 3 kts | 262° |
| 2026-04-30 14:13 | 51.88019 | -0.37348 | 508 ft | 0 kts | 310° |
| 2026-04-30 14:13 | 51.88050 | -0.37372 | 508 ft | 5 kts | 338° |
| 2026-04-30 14:14 | 51.88064 | -0.37380 | 508 ft | 1 kts | 341° |
| 2026-04-30 14:14 | 51.88069 | -0.37383 | 508 ft | 1 kts | 341° |
| 2026-04-30 14:14 | 51.88073 | -0.37385 | 508 ft | 0 kts | 341° |